Time;durP1;ratioP1;P1;durP2;ratioP2;P2;SDS_P1;SDS_P2;PMS_P1;PMS_P2;Temp;Humidity;BMP_temperature;BMP_pressure;BME280_temperature;BME280_humidity;BME280_pressure;Samples;Min_cycle;Max_cycle;Signal;HPM_P1;HPM_P2
2021/12/17 00:00:58;;;;;;;25.63;19.07;;;;;;;;;;5092999;28;20168;-76
2021/12/17 00:03:39;;;;;;;26.20;19.93;;;;;;;;;;5091447;28;20201;-76
2021/12/17 00:08:37;;;;;;;26.17;18.83;;;;;;;;;;5063242;28;20224;-76
2021/12/17 00:11:04;;;;;;;26.27;18.80;;;;;;;;;;5092840;28;20222;-76
2021/12/17 00:13:31;;;;;;;22.93;16.67;;;;;;;;;;5091819;28;20205;-76
2021/12/17 00:15:57;;;;;;;24.27;18.50;;;;;;;;;;5084012;28;20703;-77
2021/12/17 00:19:19;;;;;;;25.03;18.40;;;;;;;;;;5089943;28;20208;-76
2021/12/17 00:48:49;;;;;;;29.80;20.37;;;;;;;;;;5089293;28;20365;-77
2021/12/17 00:51:52;;;;;;;28.67;21.73;;;;;;;;;;5088844;28;20185;-76
2021/12/17 01:09:09;;;;;;;25.43;18.37;;;;;;;;;;5084411;28;20187;-76
2021/12/17 01:11:36;;;;;;;24.53;17.97;;;;;;;;;;5068672;28;20181;-76
2021/12/17 01:14:21;;;;;;;26.53;18.70;;;;;;;;;;5083783;28;20212;-77
2021/12/17 01:17:14;;;;;;;27.87;20.83;;;;;;;;;;5085193;28;20177;-77
2021/12/17 01:20:24;;;;;;;27.57;20.07;;;;;;;;;;5082810;28;20187;-77
2021/12/17 01:23:05;;;;;;;31.60;21.17;;;;;;;;;;5083280;28;20249;-77
2021/12/17 01:35:26;;;;;;;26.37;19.43;;;;;;;;;;5086646;28;20234;-76
2021/12/17 01:43:09;;;;;;;27.87;19.37;;;;;;;;;;5088621;28;20184;-76
2021/12/17 01:45:38;;;;;;;27.07;19.50;;;;;;;;;;5087457;28;20188;-77
2021/12/17 01:48:08;;;;;;;29.07;20.17;;;;;;;;;;5088341;28;20184;-77
2021/12/17 01:56:28;;;;;;;25.87;17.53;;;;;;;;;;5086208;28;20305;-76
2021/12/17 02:01:37;;;;;;;23.37;17.03;;;;;;;;;;5083899;28;20207;-77
2021/12/17 02:04:04;;;;;;;24.20;18.17;;;;;;;;;;5086731;28;20243;-76
2021/12/17 02:06:35;;;;;;;24.10;17.50;;;;;;;;;;5079948;28;20196;-77
2021/12/17 02:09:01;;;;;;;22.83;17.03;;;;;;;;;;5086309;28;20230;-77
2021/12/17 02:12:02;;;;;;;22.67;16.90;;;;;;;;;;5087618;28;20184;-77
2021/12/17 02:20:09;;;;;;;20.70;15.67;;;;;;;;;;5083205;28;20215;-77
2021/12/17 02:33:20;;;;;;;18.57;13.83;;;;;;;;;;5068637;28;20211;-77
2021/12/17 02:35:48;;;;;;;17.87;13.70;;;;;;;;;;5084040;28;20511;-77
2021/12/17 02:38:16;;;;;;;19.30;14.60;;;;;;;;;;5082498;28;20199;-77
2021/12/17 02:46:59;;;;;;;18.43;13.97;;;;;;;;;;5085655;28;20192;-76
2021/12/17 02:49:26;;;;;;;18.57;13.10;;;;;;;;;;5067418;28;20656;-77
2021/12/17 02:51:54;;;;;;;17.47;13.57;;;;;;;;;;5083980;28;20183;-77
2021/12/17 02:54:20;;;;;;;19.00;13.23;;;;;;;;;;5081534;28;20211;-77
2021/12/17 02:56:47;;;;;;;19.63;14.70;;;;;;;;;;5067310;28;20255;-76
2021/12/17 02:59:13;;;;;;;18.83;13.87;;;;;;;;;;5087742;28;20616;-77
2021/12/17 03:01:42;;;;;;;20.67;15.57;;;;;;;;;;5085404;28;20212;-76
2021/12/17 03:04:09;;;;;;;17.97;13.13;;;;;;;;;;5084431;28;20208;-77
2021/12/17 03:06:35;;;;;;;17.53;12.50;;;;;;;;;;5073486;28;20185;-77
2021/12/17 03:09:01;;;;;;;16.60;12.53;;;;;;;;;;5087101;28;20242;-77
2021/12/17 03:11:27;;;;;;;15.90;12.07;;;;;;;;;;5078970;28;20188;-77
2021/12/17 03:13:54;;;;;;;15.43;11.83;;;;;;;;;;5083332;28;20224;-77
2021/12/17 03:16:32;;;;;;;16.20;11.97;;;;;;;;;;5083853;28;20199;-76
2021/12/17 03:19:08;;;;;;;13.97;12.03;;;;;;;;;;5085096;28;20180;-76
2021/12/17 03:24:22;;;;;;;15.90;11.53;;;;;;;;;;5067048;28;20220;-77
2021/12/17 03:26:48;;;;;;;15.00;10.90;;;;;;;;;;5080486;28;20418;-77
2021/12/17 03:29:16;;;;;;;17.53;11.73;;;;;;;;;;5068036;28;20707;-76
2021/12/17 03:31:46;;;;;;;14.23;10.30;;;;;;;;;;5083730;28;20674;-77
2021/12/17 03:34:20;;;;;;;14.80;11.00;;;;;;;;;;5083644;28;20224;-76
2021/12/17 03:36:53;;;;;;;13.83;10.13;;;;;;;;;;5080450;28;20177;-76
2021/12/17 03:39:21;;;;;;;14.43;11.10;;;;;;;;;;5086396;28;20173;-77
2021/12/17 03:41:51;;;;;;;12.43;9.87;;;;;;;;;;5068149;28;20263;-76
2021/12/17 03:44:21;;;;;;;12.63;9.83;;;;;;;;;;5083740;28;20545;-77
2021/12/17 03:47:09;;;;;;;9.57;7.23;;;;;;;;;;5086573;28;20740;-77
2021/12/17 03:50:03;;;;;;;7.27;5.87;;;;;;;;;;5070018;28;20196;-77
2021/12/17 03:52:30;;;;;;;8.50;6.00;;;;;;;;;;5067357;28;20194;-77
2021/12/17 03:54:57;;;;;;;6.73;5.97;;;;;;;;;;5080990;28;20207;-77
2021/12/17 03:57:25;;;;;;;7.63;6.70;;;;;;;;;;5073515;28;20551;-77
2021/12/17 03:59:53;;;;;;;10.00;7.80;;;;;;;;;;5066766;28;20597;-76
2021/12/17 04:02:24;;;;;;;8.63;7.50;;;;;;;;;;5088160;28;20188;-77
2021/12/17 04:04:50;;;;;;;6.67;5.93;;;;;;;;;;5069950;28;20235;-76
2021/12/17 04:07:35;;;;;;;6.23;5.03;;;;;;;;;;5087236;28;22045;-76
2021/12/17 04:10:22;;;;;;;4.90;4.40;;;;;;;;;;5085593;28;20188;-76
2021/12/17 04:15:19;;;;;;;4.20;3.80;;;;;;;;;;5072806;28;21011;-77
2021/12/17 04:17:52;;;;;;;3.43;2.97;;;;;;;;;;5089429;28;20647;-76
2021/12/17 04:20:19;;;;;;;3.70;3.40;;;;;;;;;;5087430;28;20181;-77
2021/12/17 04:22:45;;;;;;;4.07;3.67;;;;;;;;;;5089654;28;20177;-76
2021/12/17 04:25:11;;;;;;;3.40;3.10;;;;;;;;;;5083604;28;20200;-76
2021/12/17 04:27:37;;;;;;;4.63;3.93;;;;;;;;;;5083432;28;20181;-76
2021/12/17 04:30:04;;;;;;;4.00;3.60;;;;;;;;;;5084572;28;20201;-77
2021/12/17 04:32:30;;;;;;;3.70;3.30;;;;;;;;;;5065978;28;20463;-77
2021/12/17 04:34:57;;;;;;;4.13;3.73;;;;;;;;;;5082414;28;20213;-75
2021/12/17 04:37:31;;;;;;;4.23;3.30;;;;;;;;;;5067496;28;20250;-75
2021/12/17 04:40:00;;;;;;;6.37;4.00;;;;;;;;;;5071391;28;20180;-74
2021/12/17 04:42:48;;;;;;;4.77;4.27;;;;;;;;;;5078676;28;20264;-75
2021/12/17 04:45:15;;;;;;;5.27;4.10;;;;;;;;;;5068345;28;20205;-75
2021/12/17 04:59:06;;;;;;;6.97;5.20;;;;;;;;;;5086089;28;20184;-75
2021/12/17 05:01:33;;;;;;;6.17;5.57;;;;;;;;;;5070040;28;20254;-74
2021/12/17 05:03:59;;;;;;;7.50;6.53;;;;;;;;;;5084846;28;20197;-75
2021/12/17 05:06:29;;;;;;;7.80;6.30;;;;;;;;;;5084305;28;20600;-75
2021/12/17 05:09:07;;;;;;;6.73;6.03;;;;;;;;;;5087308;28;20184;-75
2021/12/17 05:19:54;;;;;;;5.80;5.10;;;;;;;;;;5081216;28;20263;-74
2021/12/17 05:22:23;;;;;;;7.63;4.87;;;;;;;;;;5080256;28;20195;-75
2021/12/17 05:24:49;;;;;;;6.37;4.87;;;;;;;;;;5080211;28;20319;-75
2021/12/17 05:27:16;;;;;;;5.50;4.83;;;;;;;;;;5084787;28;20264;-75
2021/12/17 05:29:54;;;;;;;5.70;5.00;;;;;;;;;;5078011;28;20184;-74
2021/12/17 05:32:20;;;;;;;6.73;5.20;;;;;;;;;;5065877;28;20196;-75
2021/12/17 05:34:47;;;;;;;6.33;4.93;;;;;;;;;;5065896;28;20212;-74
2021/12/17 05:37:13;;;;;;;5.97;5.17;;;;;;;;;;5085273;28;20701;-75
2021/12/17 05:39:40;;;;;;;5.90;4.90;;;;;;;;;;5064774;28;20604;-75
2021/12/17 05:42:08;;;;;;;5.83;4.90;;;;;;;;;;5080324;28;20184;-74
2021/12/17 05:44:51;;;;;;;5.07;4.30;;;;;;;;;;5077713;28;20255;-75
2021/12/17 05:47:17;;;;;;;4.83;4.33;;;;;;;;;;5058134;28;20184;-75
2021/12/17 05:49:43;;;;;;;6.23;4.70;;;;;;;;;;5078057;28;20188;-75
2021/12/17 05:52:09;;;;;;;5.70;4.97;;;;;;;;;;5082080;28;20561;-74
2021/12/17 05:54:36;;;;;;;6.50;5.10;;;;;;;;;;5080324;28;20208;-74
2021/12/17 05:57:03;;;;;;;6.73;5.40;;;;;;;;;;5085116;28;20176;-74
2021/12/17 05:59:34;;;;;;;7.83;6.07;;;;;;;;;;5082939;28;20201;-74
2021/12/17 06:02:07;;;;;;;6.60;5.63;;;;;;;;;;5062312;28;20709;-77
2021/12/17 06:04:35;;;;;;;6.07;5.37;;;;;;;;;;5084493;28;20211;-74
2021/12/17 06:07:05;;;;;;;6.30;5.40;;;;;;;;;;5082690;28;20188;-75
2021/12/17 06:09:32;;;;;;;6.77;5.30;;;;;;;;;;5080646;28;20250;-74
2021/12/17 06:12:01;;;;;;;6.37;5.30;;;;;;;;;;5082301;28;20184;-75
2021/12/17 06:14:29;;;;;;;6.23;4.77;;;;;;;;;;5085028;28;20217;-75
2021/12/17 06:16:56;;;;;;;6.77;4.90;;;;;;;;;;5081329;28;20186;-74
2021/12/17 06:19:30;;;;;;;6.67;5.00;;;;;;;;;;5083608;28;20325;-74
2021/12/17 06:21:58;;;;;;;5.17;4.67;;;;;;;;;;5066905;28;20208;-77
2021/12/17 06:24:26;;;;;;;5.20;4.40;;;;;;;;;;5080646;28;20216;-77
2021/12/17 06:26:52;;;;;;;6.03;4.60;;;;;;;;;;5082230;28;20549;-76
2021/12/17 06:29:19;;;;;;;5.43;4.30;;;;;;;;;;5086544;28;20619;-75
2021/12/17 06:31:49;;;;;;;5.87;5.07;;;;;;;;;;5066397;28;20561;-76
2021/12/17 06:34:16;;;;;;;7.03;5.17;;;;;;;;;;5078568;28;20212;-76
2021/12/17 06:36:42;;;;;;;6.20;4.83;;;;;;;;;;5050007;28;20641;-80
2021/12/17 06:39:09;;;;;;;5.33;4.60;;;;;;;;;;5072900;28;20180;-79
2021/12/17 06:41:38;;;;;;;6.20;5.07;;;;;;;;;;5070345;28;20215;-76
2021/12/17 06:44:07;;;;;;;5.97;5.23;;;;;;;;;;5071577;28;20345;-80
2021/12/17 06:46:55;;;;;;;6.07;4.90;;;;;;;;;;5079898;28;20192;-76
2021/12/17 06:54:57;;;;;;;6.40;5.50;;;;;;;;;;5070745;28;20216;-76
2021/12/17 07:01:05;;;;;;;5.67;4.93;;;;;;;;;;5079255;28;20529;-77
2021/12/17 07:17:43;;;;;;;6.67;5.30;;;;;;;;;;5082330;28;20219;-78
2021/12/17 07:28:52;;;;;;;7.30;5.53;;;;;;;;;;5081309;28;20389;-73
2021/12/17 07:34:00;;;;;;;7.17;6.30;;;;;;;;;;5081437;28;20273;-74
2021/12/17 07:39:21;;;;;;;10.13;6.50;;;;;;;;;;5085970;28;20271;-75
2021/12/17 07:41:56;;;;;;;9.07;6.47;;;;;;;;;;5077370;28;20648;-75
2021/12/17 07:44:46;;;;;;;10.73;7.63;;;;;;;;;;5066790;28;20799;-75
2021/12/17 07:47:23;;;;;;;13.00;8.60;;;;;;;;;;5065340;28;20605;-75
2021/12/17 07:50:12;;;;;;;12.30;8.53;;;;;;;;;;5076793;28;20694;-75
2021/12/17 07:52:53;;;;;;;10.37;7.63;;;;;;;;;;5100133;28;20661;-75
2021/12/17 07:55:20;;;;;;;9.53;8.00;;;;;;;;;;5082705;28;20219;-74
2021/12/17 07:57:46;;;;;;;11.77;8.33;;;;;;;;;;5083094;28;20195;-75
2021/12/17 08:00:16;;;;;;;10.03;7.10;;;;;;;;;;5077753;28;20212;-75
2021/12/17 08:02:42;;;;;;;11.43;7.63;;;;;;;;;;5085228;28;20250;-75
2021/12/17 08:05:28;;;;;;;9.00;7.23;;;;;;;;;;5076111;28;20208;-75
2021/12/17 08:07:54;;;;;;;9.73;6.87;;;;;;;;;;5085743;28;20245;-74
2021/12/17 08:10:21;;;;;;;9.80;7.00;;;;;;;;;;5070827;28;20747;-75
2021/12/17 08:12:47;;;;;;;8.93;6.77;;;;;;;;;;5087392;28;20234;-74
2021/12/17 08:15:14;;;;;;;8.97;6.93;;;;;;;;;;5078708;28;20224;-75
2021/12/17 08:18:17;;;;;;;7.80;6.57;;;;;;;;;;5085172;28;20180;-75
2021/12/17 08:26:09;;;;;;;7.27;5.73;;;;;;;;;;5085117;28;20234;-79
2021/12/17 08:28:56;;;;;;;9.30;6.83;;;;;;;;;;5085113;28;20185;-75
2021/12/17 08:31:25;;;;;;;8.93;7.33;;;;;;;;;;5086574;28;20195;-76
2021/12/17 08:33:51;;;;;;;10.83;7.53;;;;;;;;;;5056790;28;20205;-77
2021/12/17 08:36:18;;;;;;;9.43;7.63;;;;;;;;;;5090182;28;20176;-76
2021/12/17 08:38:45;;;;;;;9.27;7.77;;;;;;;;;;5058003;28;20494;-77
2021/12/17 08:41:51;;;;;;;10.17;7.70;;;;;;;;;;5086099;28;20172;-74
2021/12/17 08:44:18;;;;;;;9.10;6.93;;;;;;;;;;5089695;28;20275;-75
2021/12/17 08:47:05;;;;;;;11.40;8.97;;;;;;;;;;5094154;28;20647;-75
2021/12/17 08:49:35;;;;;;;12.57;9.23;;;;;;;;;;5073842;28;20191;-77
2021/12/17 08:52:13;;;;;;;11.17;9.17;;;;;;;;;;5091542;28;20195;-76
2021/12/17 08:54:40;;;;;;;12.13;9.60;;;;;;;;;;5089288;28;20205;-75
2021/12/17 08:57:06;;;;;;;11.37;8.40;;;;;;;;;;5073096;28;20267;-75
2021/12/17 08:59:37;;;;;;;9.33;7.83;;;;;;;;;;5089844;28;20181;-75
2021/12/17 09:02:13;;;;;;;11.10;8.40;;;;;;;;;;5074823;28;20195;-75
2021/12/17 09:04:45;;;;;;;13.93;8.80;;;;;;;;;;5090253;28;20715;-76
2021/12/17 09:07:14;;;;;;;11.73;8.23;;;;;;;;;;5074034;28;20196;-75
2021/12/17 09:09:42;;;;;;;9.93;7.87;;;;;;;;;;5090857;28;20204;-75
2021/12/17 09:12:20;;;;;;;9.53;8.37;;;;;;;;;;5091260;28;20348;-75
2021/12/17 09:14:46;;;;;;;8.33;7.20;;;;;;;;;;5090475;28;20216;-75
2021/12/17 09:17:35;;;;;;;8.87;6.80;;;;;;;;;;5089022;28;20181;-74
2021/12/17 09:20:02;;;;;;;8.83;7.10;;;;;;;;;;5089562;28;20610;-75
2021/12/17 09:22:30;;;;;;;8.40;6.23;;;;;;;;;;5084076;28;20192;-76
2021/12/17 09:25:02;;;;;;;8.60;6.63;;;;;;;;;;5074309;28;20204;-77
2021/12/17 09:27:44;;;;;;;9.83;6.87;;;;;;;;;;5089291;28;20184;-77
2021/12/17 09:30:20;;;;;;;8.60;7.00;;;;;;;;;;5090379;28;20180;-75
2021/12/17 09:32:46;;;;;;;8.60;6.77;;;;;;;;;;5091518;28;20184;-76
2021/12/17 09:35:13;;;;;;;10.03;6.97;;;;;;;;;;5090360;28;20216;-76
2021/12/17 09:37:40;;;;;;;9.23;7.53;;;;;;;;;;5091490;28;20212;-76
2021/12/17 09:40:07;;;;;;;9.23;7.43;;;;;;;;;;5087924;28;20188;-75
2021/12/17 09:42:34;;;;;;;10.87;6.97;;;;;;;;;;5087077;28;20190;-76
2021/12/17 09:45:00;;;;;;;8.53;6.73;;;;;;;;;;5089581;28;20545;-76
2021/12/17 09:47:26;;;;;;;9.90;7.63;;;;;;;;;;5090219;28;20554;-77
2021/12/17 09:49:54;;;;;;;7.73;6.80;;;;;;;;;;5088701;28;20534;-77
2021/12/17 09:52:20;;;;;;;10.57;6.87;;;;;;;;;;5070480;28;20264;-77
2021/12/17 09:54:46;;;;;;;9.13;6.40;;;;;;;;;;5086726;28;20220;-76
2021/12/17 09:57:13;;;;;;;7.33;6.20;;;;;;;;;;5088361;28;20538;-77
2021/12/17 09:59:39;;;;;;;6.77;5.67;;;;;;;;;;5087571;28;20508;-80
2021/12/17 10:02:06;;;;;;;7.77;6.60;;;;;;;;;;5088657;28;20660;-76
2021/12/17 10:04:32;;;;;;;8.43;6.33;;;;;;;;;;5089901;28;20201;-76
2021/12/17 10:07:19;;;;;;;8.80;6.23;;;;;;;;;;5072350;28;20185;-77
2021/12/17 10:09:49;;;;;;;11.87;7.53;;;;;;;;;;5090217;28;20184;-76
2021/12/17 10:12:16;;;;;;;11.43;8.03;;;;;;;;;;5089996;28;20225;-76
2021/12/17 10:14:43;;;;;;;10.70;7.13;;;;;;;;;;5072815;28;20208;-76
2021/12/17 10:17:11;;;;;;;9.93;7.30;;;;;;;;;;5090879;28;20635;-76
2021/12/17 10:19:45;;;;;;;8.30;7.40;;;;;;;;;;5090643;28;20183;-76
2021/12/17 10:22:12;;;;;;;8.47;7.50;;;;;;;;;;5073036;28;20322;-77
2021/12/17 10:24:42;;;;;;;10.10;8.13;;;;;;;;;;5090958;28;20200;-77
2021/12/17 10:27:21;;;;;;;10.63;8.23;;;;;;;;;;5090097;28;20199;-77
2021/12/17 10:29:48;;;;;;;8.70;7.10;;;;;;;;;;5080518;28;20707;-77
2021/12/17 10:32:21;;;;;;;9.63;7.47;;;;;;;;;;5070945;28;20666;-77
2021/12/17 10:35:00;;;;;;;9.60;7.33;;;;;;;;;;5068874;28;20240;-77
2021/12/17 10:37:38;;;;;;;9.47;8.10;;;;;;;;;;5069451;28;20329;-77
2021/12/17 10:40:21;;;;;;;12.37;8.07;;;;;;;;;;5085479;28;20584;-76
2021/12/17 10:42:58;;;;;;;10.13;8.37;;;;;;;;;;5090897;28;20221;-76
2021/12/17 10:45:29;;;;;;;11.17;9.17;;;;;;;;;;5090592;28;20677;-76
2021/12/17 10:51:28;;;;;;;10.77;8.70;;;;;;;;;;5058428;28;20188;-77
2021/12/17 10:53:56;;;;;;;10.20;8.27;;;;;;;;;;5073334;28;20205;-77
2021/12/17 10:56:27;;;;;;;11.17;8.97;;;;;;;;;;5074446;28;20851;-77
2021/12/17 10:58:54;;;;;;;10.50;9.20;;;;;;;;;;5080948;28;20177;-77
2021/12/17 11:01:28;;;;;;;10.63;9.20;;;;;;;;;;5094898;28;20188;-76
2021/12/17 11:04:03;;;;;;;11.83;9.70;;;;;;;;;;5093582;28;20309;-77
2021/12/17 11:06:41;;;;;;;11.73;9.53;;;;;;;;;;5093339;28;20221;-77
2021/12/17 11:09:07;;;;;;;10.77;8.83;;;;;;;;;;5094146;28;20647;-77
2021/12/17 11:11:40;;;;;;;10.47;8.47;;;;;;;;;;5079213;28;20176;-77
2021/12/17 11:14:06;;;;;;;9.07;7.93;;;;;;;;;;5102373;28;20578;-76
2021/12/17 11:16:32;;;;;;;9.83;8.23;;;;;;;;;;5100323;28;20655;-76
2021/12/17 11:18:59;;;;;;;10.07;8.30;;;;;;;;;;5096530;28;20169;-77
2021/12/17 11:21:25;;;;;;;8.17;7.17;;;;;;;;;;5095192;28;20640;-77
2021/12/17 11:23:51;;;;;;;10.03;8.30;;;;;;;;;;5095702;28;20198;-76
2021/12/17 11:26:17;;;;;;;10.17;8.43;;;;;;;;;;5094848;28;20177;-77
2021/12/17 11:28:46;;;;;;;10.70;7.93;;;;;;;;;;5092527;28;20234;-77
2021/12/17 11:31:12;;;;;;;8.17;7.10;;;;;;;;;;5096265;28;20176;-77
2021/12/17 11:33:38;;;;;;;10.57;7.77;;;;;;;;;;5093668;28;20269;-76
2021/12/17 11:36:05;;;;;;;12.20;9.00;;;;;;;;;;5092173;28;20200;-77
2021/12/17 11:38:34;;;;;;;11.33;8.37;;;;;;;;;;5093278;28;20253;-77
2021/12/17 11:41:14;;;;;;;9.53;8.40;;;;;;;;;;5082551;28;20207;-78
2021/12/17 11:43:51;;;;;;;9.87;8.20;;;;;;;;;;5073916;28;20616;-77
2021/12/17 11:46:19;;;;;;;9.17;7.63;;;;;;;;;;5094170;28;20356;-78
2021/12/17 11:48:49;;;;;;;8.53;7.13;;;;;;;;;;5079401;28;20199;-78
2021/12/17 11:51:23;;;;;;;7.87;6.97;;;;;;;;;;5096592;28;20185;-78
2021/12/17 11:53:53;;;;;;;7.60;6.60;;;;;;;;;;5099281;28;20246;-77
2021/12/17 11:56:31;;;;;;;11.10;7.77;;;;;;;;;;5110855;28;20548;-78
2021/12/17 11:58:57;;;;;;;7.80;6.30;;;;;;;;;;5085330;28;20185;-77
2021/12/17 12:01:42;;;;;;;9.53;6.47;;;;;;;;;;5095235;28;20549;-78
2021/12/17 12:04:27;;;;;;;9.03;6.10;;;;;;;;;;5096736;28;20256;-77
2021/12/17 12:07:13;;;;;;;6.67;5.97;;;;;;;;;;5094747;28;20188;-79
2021/12/17 12:09:59;;;;;;;6.73;6.00;;;;;;;;;;5090927;28;20243;-81
2021/12/17 12:12:28;;;;;;;7.37;6.30;;;;;;;;;;5094201;28;20456;-78
2021/12/17 12:14:54;;;;;;;7.17;6.33;;;;;;;;;;5091461;28;20232;-78
2021/12/17 12:17:39;;;;;;;8.60;6.93;;;;;;;;;;5093908;28;20185;-79
2021/12/17 12:20:05;;;;;;;7.23;6.40;;;;;;;;;;5093742;28;20640;-78
2021/12/17 12:22:32;;;;;;;6.70;5.97;;;;;;;;;;5093140;28;20184;-77
2021/12/17 12:25:17;;;;;;;7.00;6.20;;;;;;;;;;5093854;28;20220;-85
2021/12/17 12:27:46;;;;;;;6.10;5.47;;;;;;;;;;5091821;28;20192;-79
2021/12/17 12:30:14;;;;;;;5.80;5.20;;;;;;;;;;5093626;28;20184;-83
2021/12/17 12:32:58;;;;;;;7.27;5.70;;;;;;;;;;5102604;28;20190;-77
2021/12/17 12:35:25;;;;;;;8.63;6.53;;;;;;;;;;5090012;28;20208;-79
2021/12/17 12:38:11;;;;;;;7.67;5.80;;;;;;;;;;5097073;28;20191;-78
2021/12/17 12:40:44;;;;;;;8.50;6.17;;;;;;;;;;5088670;28;20226;-78
2021/12/17 12:43:24;;;;;;;6.97;6.10;;;;;;;;;;5092919;28;20655;-77
2021/12/17 12:45:50;;;;;;;8.60;6.17;;;;;;;;;;5074891;28;20189;-78
2021/12/17 12:48:41;;;;;;;7.33;5.90;;;;;;;;;;5095291;28;20184;-79
2021/12/17 12:51:14;;;;;;;9.03;6.97;;;;;;;;;;5098118;28;20176;-80
2021/12/17 12:53:45;;;;;;;6.67;5.97;;;;;;;;;;5079217;28;20220;-80
2021/12/17 12:56:16;;;;;;;7.67;6.37;;;;;;;;;;5095521;28;20233;-80
2021/12/17 12:58:45;;;;;;;8.53;7.07;;;;;;;;;;5071240;28;20731;-80
2021/12/17 13:01:13;;;;;;;8.97;7.50;;;;;;;;;;5077766;28;20188;-80
2021/12/17 13:03:39;;;;;;;10.57;8.13;;;;;;;;;;5096044;28;20691;-80
2021/12/17 13:06:06;;;;;;;9.63;7.83;;;;;;;;;;5096754;28;20589;-80
2021/12/17 13:08:33;;;;;;;8.63;7.17;;;;;;;;;;5076444;28;20212;-80
2021/12/17 13:11:06;;;;;;;11.37;7.47;;;;;;;;;;5051205;28;20217;-80
2021/12/17 13:13:37;;;;;;;10.03;7.97;;;;;;;;;;5078428;28;20219;-80
2021/12/17 13:16:13;;;;;;;10.53;8.23;;;;;;;;;;5091736;28;20311;-80
2021/12/17 13:26:34;;;;;;;10.07;8.37;;;;;;;;;;5084269;28;20652;-79
2021/12/17 13:29:09;;;;;;;9.30;7.47;;;;;;;;;;5091424;28;20184;-80
2021/12/17 13:31:37;;;;;;;10.77;8.30;;;;;;;;;;5072746;28;20548;-80
2021/12/17 13:34:15;;;;;;;11.17;8.53;;;;;;;;;;5091095;28;20212;-80
2021/12/17 13:36:50;;;;;;;9.23;7.40;;;;;;;;;;5091128;28;20202;-80
2021/12/17 13:39:16;;;;;;;11.70;8.27;;;;;;;;;;5073786;28;20215;-79
2021/12/17 13:41:43;;;;;;;11.97;8.93;;;;;;;;;;5064072;28;20174;-80
2021/12/17 13:44:25;;;;;;;11.70;9.17;;;;;;;;;;5071651;28;20253;-80
2021/12/17 13:46:51;;;;;;;12.30;10.00;;;;;;;;;;5073812;28;20185;-79
2021/12/17 13:49:18;;;;;;;13.00;10.80;;;;;;;;;;5073712;28;20237;-80
2021/12/17 13:51:45;;;;;;;13.83;10.10;;;;;;;;;;5073652;28;20180;-80
2021/12/17 13:54:11;;;;;;;12.97;10.37;;;;;;;;;;5091642;28;20204;-80
2021/12/17 13:56:37;;;;;;;14.00;9.13;;;;;;;;;;5056184;28;20179;-80
2021/12/17 13:59:04;;;;;;;10.97;8.73;;;;;;;;;;5090490;28;20652;-80
2021/12/17 14:01:30;;;;;;;12.13;9.87;;;;;;;;;;5094511;28;20173;-80
2021/12/17 14:03:56;;;;;;;13.57;10.00;;;;;;;;;;5084338;28;20201;-80
2021/12/17 14:06:25;;;;;;;12.60;10.40;;;;;;;;;;5074156;28;20233;-79
2021/12/17 14:08:52;;;;;;;13.23;9.43;;;;;;;;;;5058710;28;20177;-79
2021/12/17 14:11:19;;;;;;;15.43;10.93;;;;;;;;;;5069506;28;20664;-80
2021/12/17 14:13:46;;;;;;;16.10;11.47;;;;;;;;;;5058531;28;20204;-80
2021/12/17 14:16:14;;;;;;;13.03;10.13;;;;;;;;;;5090096;28;20191;-80
2021/12/17 14:18:41;;;;;;;14.97;11.47;;;;;;;;;;5092125;28;20181;-79
2021/12/17 14:21:07;;;;;;;14.43;10.83;;;;;;;;;;5089466;28;20309;-80
2021/12/17 14:23:38;;;;;;;13.33;11.13;;;;;;;;;;5090158;28;20695;-80
2021/12/17 14:26:09;;;;;;;15.03;11.20;;;;;;;;;;5089928;28;20210;-80
2021/12/17 14:28:40;;;;;;;17.87;11.03;;;;;;;;;;5090019;28;20216;-80
2021/12/17 14:31:09;;;;;;;14.43;11.43;;;;;;;;;;5073636;28;20192;-79
2021/12/17 14:33:42;;;;;;;13.73;11.00;;;;;;;;;;5077058;28;20221;-79
2021/12/17 14:36:12;;;;;;;14.20;10.43;;;;;;;;;;5096067;28;20208;-79
2021/12/17 14:38:41;;;;;;;16.37;10.70;;;;;;;;;;5093941;28;20667;-79
2021/12/17 14:41:12;;;;;;;13.10;10.70;;;;;;;;;;5110970;28;20180;-79
2021/12/17 14:43:51;;;;;;;14.37;11.60;;;;;;;;;;5106175;28;20208;-79
2021/12/17 14:48:56;;;;;;;17.03;12.03;;;;;;;;;;5092567;28;20233;-80
2021/12/17 15:04:39;;;;;;;15.13;11.30;;;;;;;;;;5091922;28;20195;-80
2021/12/17 15:07:05;;;;;;;16.53;11.87;;;;;;;;;;5073186;28;20195;-79
2021/12/17 15:09:32;;;;;;;15.33;11.47;;;;;;;;;;5090370;28;20184;-79
2021/12/17 15:12:01;;;;;;;17.87;12.60;;;;;;;;;;5090734;28;20184;-80
2021/12/17 15:14:27;;;;;;;16.83;12.37;;;;;;;;;;5073666;28;20218;-78
2021/12/17 15:16:54;;;;;;;17.73;11.70;;;;;;;;;;5109284;28;20184;-79
2021/12/17 15:19:20;;;;;;;13.83;11.40;;;;;;;;;;5070859;28;20589;-79
2021/12/17 15:21:46;;;;;;;13.93;11.30;;;;;;;;;;5090316;28;20192;-80
2021/12/17 15:24:12;;;;;;;14.47;10.93;;;;;;;;;;5087053;28;20211;-79
2021/12/17 15:26:39;;;;;;;13.53;11.03;;;;;;;;;;5089597;28;20208;-78
2021/12/17 15:29:05;;;;;;;12.40;10.00;;;;;;;;;;5093558;28;20587;-79
2021/12/17 15:31:31;;;;;;;12.43;10.77;;;;;;;;;;5091262;28;20619;-77
2021/12/17 15:33:57;;;;;;;12.83;9.83;;;;;;;;;;5091665;28;20567;-78
2021/12/17 15:36:23;;;;;;;12.63;9.43;;;;;;;;;;5084551;28;20605;-78
2021/12/17 15:38:49;;;;;;;11.57;9.77;;;;;;;;;;5060361;28;20188;-78
2021/12/17 15:41:15;;;;;;;12.80;10.63;;;;;;;;;;5091381;28;20648;-78
2021/12/17 15:43:42;;;;;;;12.17;9.37;;;;;;;;;;5057892;28;20216;-78
2021/12/17 15:46:08;;;;;;;12.00;9.73;;;;;;;;;;5085836;28;20192;-78
2021/12/17 15:48:34;;;;;;;10.93;8.77;;;;;;;;;;5094952;28;20789;-78
2021/12/17 15:51:00;;;;;;;12.97;9.50;;;;;;;;;;5093517;28;20208;-78
2021/12/17 15:53:27;;;;;;;11.90;8.67;;;;;;;;;;5057711;28;20205;-79
2021/12/17 15:55:54;;;;;;;10.13;8.40;;;;;;;;;;5072140;28;20689;-79
2021/12/17 15:58:20;;;;;;;12.10;8.80;;;;;;;;;;5089496;28;20177;-79
2021/12/17 16:00:46;;;;;;;9.67;7.63;;;;;;;;;;5090982;28;20256;-78
2021/12/17 16:03:14;;;;;;;10.60;8.30;;;;;;;;;;5093619;28;20175;-79
2021/12/17 16:05:41;;;;;;;9.17;7.93;;;;;;;;;;5079049;28;20626;-79
2021/12/17 16:08:07;;;;;;;10.93;7.73;;;;;;;;;;5079888;28;20600;-79
2021/12/17 16:16:52;;;;;;;8.90;7.10;;;;;;;;;;5097979;28;20188;-79
2021/12/17 16:18:56;;;;;;;8.40;6.73;;;;;;;;;;5095538;28;20189;-79
2021/12/17 16:21:23;;;;;;;8.37;5.83;;;;;;;;;;5079331;28;20203;-79
2021/12/17 16:23:52;;;;;;;9.00;6.80;;;;;;;;;;5095507;28;20188;-79
2021/12/17 16:26:19;;;;;;;10.13;7.67;;;;;;;;;;5096276;28;20287;-79
2021/12/17 16:28:47;;;;;;;9.87;7.33;;;;;;;;;;5099216;28;20191;-79
2021/12/17 16:31:24;;;;;;;9.23;7.33;;;;;;;;;;5096241;28;20220;-78
2021/12/17 16:33:51;;;;;;;9.43;7.10;;;;;;;;;;5075470;28;20679;-79
2021/12/17 16:36:18;;;;;;;11.07;7.80;;;;;;;;;;5074958;28;20177;-78
2021/12/17 16:38:44;;;;;;;11.50;8.00;;;;;;;;;;5093497;28;20573;-78
2021/12/17 16:41:11;;;;;;;9.60;7.53;;;;;;;;;;5093749;28;20181;-78
2021/12/17 16:43:38;;;;;;;8.30;6.97;;;;;;;;;;5092579;28;20567;-78
2021/12/17 16:48:38;;;;;;;9.17;6.97;;;;;;;;;;5094575;28;20238;-78
2021/12/17 16:51:05;;;;;;;11.13;8.00;;;;;;;;;;5094564;28;20242;-78
2021/12/17 16:53:31;;;;;;;15.97;9.80;;;;;;;;;;5075970;28;20771;-78
2021/12/17 16:55:57;;;;;;;18.90;10.50;;;;;;;;;;5089894;28;20219;-78
2021/12/17 16:58:24;;;;;;;16.53;9.70;;;;;;;;;;5072885;28;20219;-78
2021/12/17 17:00:50;;;;;;;12.90;8.67;;;;;;;;;;5093751;28;20643;-78
2021/12/17 17:03:17;;;;;;;10.40;7.70;;;;;;;;;;5089793;28;20181;-78
2021/12/17 17:05:44;;;;;;;9.23;7.10;;;;;;;;;;5089322;28;20667;-78
2021/12/17 17:08:10;;;;;;;10.87;8.00;;;;;;;;;;5089221;28;20263;-78
2021/12/17 17:10:37;;;;;;;10.23;7.07;;;;;;;;;;5073429;28;20220;-79
2021/12/17 17:13:04;;;;;;;9.70;7.67;;;;;;;;;;5072628;28;20237;-78
2021/12/17 17:15:35;;;;;;;11.77;8.43;;;;;;;;;;5090115;28;20219;-78
2021/12/17 17:18:03;;;;;;;9.30;7.67;;;;;;;;;;5090805;28;20184;-78
2021/12/17 17:20:30;;;;;;;10.53;7.80;;;;;;;;;;5089436;28;20643;-78
2021/12/17 17:22:57;;;;;;;10.43;8.07;;;;;;;;;;5089947;28;20168;-78
2021/12/17 17:25:23;;;;;;;13.77;8.90;;;;;;;;;;5091870;28;20251;-80
2021/12/17 17:27:49;;;;;;;13.20;9.20;;;;;;;;;;5075175;28;20218;-78
2021/12/17 17:30:16;;;;;;;20.00;14.40;;;;;;;;;;5076498;28;20185;-77
2021/12/17 17:32:43;;;;;;;22.83;16.77;;;;;;;;;;5096348;28;20287;-81
2021/12/17 17:35:09;;;;;;;16.47;11.83;;;;;;;;;;5073141;28;20201;-78
2021/12/17 17:37:37;;;;;;;13.23;10.50;;;;;;;;;;5073450;28;20193;-78
2021/12/17 17:40:04;;;;;;;13.30;10.03;;;;;;;;;;5088776;28;20251;-78
2021/12/17 17:42:30;;;;;;;13.37;8.50;;;;;;;;;;5079112;28;20184;-78
2021/12/17 17:44:57;;;;;;;18.73;14.23;;;;;;;;;;5101343;28;20211;-78
2021/12/17 17:47:23;;;;;;;17.27;11.57;;;;;;;;;;5098278;28;20184;-78
2021/12/17 17:49:53;;;;;;;21.03;12.77;;;;;;;;;;5093028;28;20177;-77
2021/12/17 17:52:20;;;;;;;14.37;11.23;;;;;;;;;;5097283;28;20603;-78
2021/12/17 17:54:46;;;;;;;11.43;9.10;;;;;;;;;;5090958;28;20235;-77
2021/12/17 17:57:12;;;;;;;18.37;11.67;;;;;;;;;;5088314;28;20620;-78
2021/12/17 17:59:39;;;;;;;15.53;11.30;;;;;;;;;;5061261;28;20223;-78
2021/12/17 18:02:06;;;;;;;14.53;10.37;;;;;;;;;;5102243;28;20647;-78
2021/12/17 18:04:32;;;;;;;14.37;10.10;;;;;;;;;;5099067;28;20503;-78
2021/12/17 18:06:58;;;;;;;15.97;11.23;;;;;;;;;;5079269;28;20184;-78